Mojave Air & Space Port

Airport
ICAO code: 
KMHV
IATA Code: 
MHV
Summary
ICAO Region: 
NAM
Territory: 
Location: 
Mojave, California
Serving: 
Mojave
Elevation: 
2791 ft
Coordinates: 
Aerial View: 
35° 3' 22.446" N, 118° 9' 28.206" W
Metar
Observation
KMHV 020940Z AUTO 32005KT 10SM CLR 07/M12 A3018 RMK A01
Station
Mojave
Date/Time
2021-12-02 09:40:00
Wind direction
320°
Wind speed
05 kts
Lowest cloud amount
n/a
Temperature
7°C
Dew point
-12°C
Humidity
24%
Weather condition
n/a

The Mojave Air and Space Port, also known as the Civilian Aerospace Test Centre, is located in Mojave, California. It is the first facility to be licensed in the United States for horizontal launches of reusable spacecraft, being certified as a spaceport by the Federal Aviation Administration on 17th June 2004.

Runways

Designator Length Width Surface Rops
4/22 1446 15 ASP Yes/Yes
8/26 2149 30 ASP Yes/Yes
12/30 2896 61 PEM Yes/Yes
Airport map: 
Aerial View: 

SKYbrary Partners:

Safety knowledge contributed by: